Time;durP1;ratioP1;P1;durP2;ratioP2;P2;SDS_P1;SDS_P2;PMS_P1;PMS_P2;Temp;Humidity;BMP_temperature;BMP_pressure;BME280_temperature;BME280_humidity;BME280_pressure;Samples;Min_cycle;Max_cycle;Signal;HPM_P1;HPM_P2
2022/09/09 00:02:04;;;;;;;;;;;;;;;20.66;54.16;95185.66;5089494;28;20062;-64
2022/09/09 00:04:31;;;;;;;;;;;;;;;20.68;53.97;95177.22;5077387;28;20021;-65
2022/09/09 00:07:03;;;;;;;;;;;;;;;20.77;53.76;95180.41;5108997;28;20012;-65
2022/09/09 00:09:30;;;;;;;;;;;;;;;20.74;53.66;95178.44;5091736;28;20009;-65
2022/09/09 00:12:03;;;;;;;;;;;;;;;20.72;53.85;95184.19;5089393;28;20020;-65
2022/09/09 00:14:50;;;;;;;;;;;;;;;20.70;53.83;95181.09;5109657;28;20005;-65
2022/09/09 00:17:25;;;;;;;;;;;;;;;20.62;54.32;95179.44;5108969;28;20102;-65
2022/09/09 00:19:56;;;;;;;;;;;;;;;20.63;54.12;95175.63;5108808;28;20022;-65
2022/09/09 00:22:23;;;;;;;;;;;;;;;20.63;54.23;95180.25;5110507;28;20012;-66
2022/09/09 00:24:48;;;;;;;;;;;;;;;20.67;54.21;95175.63;5113479;28;20123;-66
2022/09/09 00:27:16;;;;;;;;;;;;;;;20.69;54.21;95182.25;5110665;28;20104;-66
2022/09/09 00:29:45;;;;;;;;;;;;;;;20.75;54.29;95178.06;5113274;28;20008;-67
2022/09/09 00:32:15;;;;;;;;;;;;;;;20.77;53.79;95166.88;5092785;28;20051;-65
2022/09/09 00:34:47;;;;;;;;;;;;;;;20.73;54.36;95166.84;5092939;28;20058;-65
2022/09/09 00:37:12;;;;;;;;;;;;;;;20.66;54.14;95174.09;5094811;28;20009;-66
2022/09/09 00:39:41;;;;;;;;;;;;;;;20.59;54.51;95166.69;5112056;28;20013;-66
2022/09/09 00:42:09;;;;;;;;;;;;;;;20.54;54.45;95180.50;5111323;28;20013;-66
2022/09/09 00:44:36;;;;;;;;;;;;;;;20.53;54.67;95178.97;5112033;28;20024;-65
2022/09/09 00:47:05;;;;;;;;;;;;;;;20.52;54.55;95171.97;5111807;28;20630;-66
2022/09/09 00:49:48;;;;;;;;;;;;;;;20.50;54.65;95176.97;5110232;28;20017;-66
2022/09/09 00:52:22;;;;;;;;;;;;;;;20.41;55.02;95179.91;5091754;28;20016;-66
2022/09/09 00:54:55;;;;;;;;;;;;;;;20.26;55.17;95176.22;5106425;28;20048;-71
2022/09/09 00:57:28;;;;;;;;;;;;;;;20.12;55.52;95178.75;5092939;28;20058;-66
2022/09/09 00:59:57;;;;;;;;;;;;;;;20.02;55.88;95173.97;5109501;28;20009;-67
2022/09/09 01:02:31;;;;;;;;;;;;;;;19.93;56.06;95178.84;5109147;28;20016;-66
2022/09/09 01:05:05;;;;;;;;;;;;;;;19.92;56.25;95182.69;5111486;28;20061;-65
2022/09/09 01:07:31;;;;;;;;;;;;;;;19.91;56.33;95178.41;5111732;28;20507;-66
2022/09/09 01:09:58;;;;;;;;;;;;;;;19.96;56.50;95178.91;5093327;28;20035;-66
2022/09/09 01:12:25;;;;;;;;;;;;;;;20.07;56.39;95186.38;5110681;28;20376;-66
2022/09/09 01:15:09;;;;;;;;;;;;;;;20.16;55.91;95182.25;5091009;28;20013;-65
2022/09/09 01:17:44;;;;;;;;;;;;;;;20.27;55.83;95182.44;5073851;28;20020;-66
2022/09/09 01:20:09;;;;;;;;;;;;;;;19.83;55.78;95125.47;5108116;28;20465;-66
2022/09/09 01:22:40;;;;;;;;;;;;;;;20.32;55.66;95175.91;5111706;28;20102;-65
2022/09/09 01:25:17;;;;;;;;;;;;;;;20.34;55.72;95176.34;5110360;28;20020;-66
2022/09/09 01:27:43;;;;;;;;;;;;;;;20.35;55.59;95178.69;5109983;28;20357;-66
2022/09/09 01:30:11;;;;;;;;;;;;;;;20.39;55.52;95176.03;5092725;28;20047;-67
2022/09/09 01:32:38;;;;;;;;;;;;;;;20.43;55.34;95174.94;5092455;28;20019;-66
2022/09/09 01:35:05;;;;;;;;;;;;;;;20.38;55.53;95177.19;5109918;28;20020;-65
2022/09/09 01:37:31;;;;;;;;;;;;;;;20.42;55.47;95167.19;5111934;28;20031;-66
2022/09/09 01:39:56;;;;;;;;;;;;;;;20.41;55.33;95177.22;5110902;28;20465;-65
2022/09/09 01:42:21;;;;;;;;;;;;;;;20.34;55.63;95168.25;5109926;28;20503;-65
2022/09/09 01:44:46;;;;;;;;;;;;;;;20.30;55.63;95176.28;5110781;28;20024;-65
2022/09/09 01:47:11;;;;;;;;;;;;;;;20.24;55.89;95173.13;5091274;28;20031;-66
2022/09/09 01:49:37;;;;;;;;;;;;;;;20.07;56.26;95167.47;5110843;28;20013;-65
2022/09/09 01:52:02;;;;;;;;;;;;;;;20.03;56.16;95172.81;5110123;28;20027;-65
2022/09/09 01:54:29;;;;;;;;;;;;;;;19.98;56.27;95181.22;5110376;28;20012;-65
2022/09/09 01:57:13;;;;;;;;;;;;;;;19.93;56.48;95182.31;5111566;28;20005;-65
2022/09/09 01:59:44;;;;;;;;;;;;;;;19.87;57.03;95181.06;5100142;28;20016;-65
2022/09/09 02:02:17;;;;;;;;;;;;;;;19.89;56.74;95172.59;5091652;28;20421;-65
2022/09/09 02:04:50;;;;;;;;;;;;;;;19.79;57.19;95178.63;5109855;28;20020;-66
2022/09/09 02:07:24;;;;;;;;;;;;;;;19.77;57.16;95170.13;5093082;28;20104;-65
2022/09/09 02:09:52;;;;;;;;;;;;;;;19.73;57.23;95172.75;5110413;28;20110;-66
2022/09/09 02:12:19;;;;;;;;;;;;;;;19.72;57.33;95166.56;5109880;28;20059;-65
2022/09/09 02:14:49;;;;;;;;;;;;;;;19.74;57.17;95158.09;5118341;27;20016;-65
2022/09/09 02:17:18;;;;;;;;;;;;;;;19.77;57.25;95153.91;5109441;28;20016;-65
2022/09/09 02:19:49;;;;;;;;;;;;;;;19.76;56.98;95153.13;5110161;28;20444;-65
2022/09/09 02:22:17;;;;;;;;;;;;;;;19.74;57.18;95164.28;5109125;28;20092;-65
2022/09/09 02:24:42;;;;;;;;;;;;;;;19.80;57.25;95162.06;5110923;28;20009;-65
2022/09/09 02:27:09;;;;;;;;;;;;;;;19.78;57.37;95163.56;5091917;28;20054;-65
2022/09/09 02:29:36;;;;;;;;;;;;;;;19.76;57.65;95173.94;5091250;28;20013;-65
2022/09/09 02:32:03;;;;;;;;;;;;;;;19.80;57.52;95170.16;5109866;27;20054;-66
2022/09/09 02:34:31;;;;;;;;;;;;;;;19.88;57.40;95160.25;5109327;28;20009;-66
2022/09/09 02:36:57;;;;;;;;;;;;;;;19.96;57.21;95157.31;5110831;28;20443;-65
2022/09/09 02:39:22;;;;;;;;;;;;;;;19.98;57.26;95156.94;5109867;28;20345;-65
2022/09/09 02:41:47;;;;;;;;;;;;;;;20.02;57.36;95157.78;5092774;28;20016;-66
2022/09/09 02:44:16;;;;;;;;;;;;;;;20.02;57.16;95157.78;5107220;28;20020;-65
2022/09/09 02:46:41;;;;;;;;;;;;;;;19.95;57.21;95154.94;5103266;28;20510;-66
2022/09/09 02:49:09;;;;;;;;;;;;;;;19.94;57.25;95154.19;5110648;28;20012;-65
2022/09/09 02:51:45;;;;;;;;;;;;;;;19.91;57.45;95149.53;5108727;28;20009;-65
2022/09/09 02:54:16;;;;;;;;;;;;;;;19.89;57.46;95151.00;5110076;28;20411;-66
2022/09/09 02:56:45;;;;;;;;;;;;;;;19.85;57.59;95167.16;5110089;28;20013;-66
2022/09/09 02:59:11;;;;;;;;;;;;;;;19.86;57.51;95154.41;5109681;28;20009;-65
2022/09/09 03:01:39;;;;;;;;;;;;;;;19.85;57.59;95150.16;5108515;28;20488;-66
2022/09/09 03:04:05;;;;;;;;;;;;;;;19.85;57.70;95155.56;5109713;28;20017;-66
2022/09/09 03:06:30;;;;;;;;;;;;;;;19.82;57.71;95153.63;5109686;28;20652;-66
2022/09/09 03:08:58;;;;;;;;;;;;;;;19.86;57.60;95149.03;5109241;28;20008;-64
2022/09/09 03:11:24;;;;;;;;;;;;;;;19.85;57.87;95145.56;5109353;28;20016;-65
2022/09/09 03:13:49;;;;;;;;;;;;;;;19.84;57.98;95152.09;5107427;28;20035;-65
2022/09/09 03:16:15;;;;;;;;;;;;;;;19.83;57.85;95147.84;5089496;28;20019;-64
2022/09/09 03:18:40;;;;;;;;;;;;;;;19.85;57.83;95144.78;5110497;28;20005;-65
2022/09/09 03:21:06;;;;;;;;;;;;;;;19.84;58.09;95149.41;5106561;28;20372;-65
2022/09/09 03:23:31;;;;;;;;;;;;;;;19.81;57.87;95139.34;5109635;28;20021;-65
2022/09/09 03:25:58;;;;;;;;;;;;;;;19.81;57.97;95149.34;5108764;28;20016;-66
2022/09/09 03:28:24;;;;;;;;;;;;;;;19.76;58.10;95146.94;5090988;28;20552;-64
2022/09/09 03:30:50;;;;;;;;;;;;;;;19.69;58.39;95150.31;5088842;28;20890;-65
2022/09/09 03:33:16;;;;;;;;;;;;;;;19.69;58.43;95143.00;5108672;28;20005;-65
2022/09/09 03:35:46;;;;;;;;;;;;;;;19.67;58.47;95149.91;5109103;28;20102;-65
2022/09/09 03:38:11;;;;;;;;;;;;;;;19.65;58.35;95135.97;5108931;28;20035;-65
2022/09/09 03:40:36;;;;;;;;;;;;;;;19.62;58.46;95142.91;5110106;28;20016;-65
2022/09/09 03:43:01;;;;;;;;;;;;;;;19.62;58.40;95156.38;5108597;28;20389;-65
2022/09/09 03:45:27;;;;;;;;;;;;;;;19.59;58.52;95143.59;5107487;28;20013;-65
2022/09/09 03:47:52;;;;;;;;;;;;;;;19.59;58.76;95143.59;5110058;28;20372;-65
2022/09/09 03:50:18;;;;;;;;;;;;;;;19.59;58.91;95149.00;5109051;28;20602;-66
2022/09/09 03:52:43;;;;;;;;;;;;;;;19.67;58.85;95147.97;5091258;28;20009;-66
2022/09/09 03:55:09;;;;;;;;;;;;;;;19.72;58.99;95147.69;5108128;28;20020;-65
2022/09/09 03:57:35;;;;;;;;;;;;;;;19.86;58.92;95149.03;5113830;28;20011;-66
2022/09/09 04:00:05;;;;;;;;;;;;;;;19.99;58.27;95148.47;5111645;28;20019;-64
2022/09/09 04:02:30;;;;;;;;;;;;;;;20.10;58.15;95139.75;5112474;28;20052;-66
2022/09/09 04:04:56;;;;;;;;;;;;;;;20.21;57.78;95137.97;5111682;28;20066;-65
2022/09/09 04:07:21;;;;;;;;;;;;;;;20.30;57.65;95135.00;5113770;28;20004;-66
2022/09/09 04:09:46;;;;;;;;;;;;;;;20.39;57.22;95136.28;5112614;28;20392;-65
2022/09/09 04:12:13;;;;;;;;;;;;;;;20.43;57.12;95136.34;5113089;28;20005;-65
2022/09/09 04:14:38;;;;;;;;;;;;;;;20.44;56.79;95130.56;5111170;28;20012;-65
2022/09/09 04:17:06;;;;;;;;;;;;;;;20.46;56.86;95130.19;5112505;28;20018;-65
2022/09/09 04:19:31;;;;;;;;;;;;;;;20.48;56.73;95119.84;5112497;28;20005;-65
2022/09/09 04:21:56;;;;;;;;;;;;;;;20.53;56.67;95122.22;5113033;28;20011;-65
2022/09/09 04:24:21;;;;;;;;;;;;;;;20.55;56.41;95124.53;5112616;28;20125;-65
2022/09/09 04:26:47;;;;;;;;;;;;;;;20.49;56.36;95122.16;5108571;28;20012;-65
2022/09/09 04:29:12;;;;;;;;;;;;;;;20.38;56.64;95112.34;5113324;28;20043;-65
2022/09/09 04:31:41;;;;;;;;;;;;;;;20.20;56.81;95104.78;5110213;28;20017;-64
2022/09/09 04:34:07;;;;;;;;;;;;;;;20.14;57.02;95108.16;5093478;28;20385;-65
2022/09/09 04:36:32;;;;;;;;;;;;;;;20.05;57.05;95111.13;5112083;28;20078;-65
2022/09/09 04:38:58;;;;;;;;;;;;;;;19.92;57.25;95113.28;5113201;28;20005;-66
2022/09/09 04:41:23;;;;;;;;;;;;;;;19.82;57.45;95108.50;5093492;28;20013;-65
2022/09/09 04:43:48;;;;;;;;;;;;;;;19.70;58.04;95138.38;5110577;28;20016;-66
2022/09/09 04:46:15;;;;;;;;;;;;;;;19.64;57.99;95113.63;5110791;28;20103;-65
2022/09/09 04:48:40;;;;;;;;;;;;;;;19.56;58.35;95113.84;5112967;28;20343;-65
2022/09/09 04:51:06;;;;;;;;;;;;;;;19.57;58.59;95110.78;5111930;28;20019;-65
2022/09/09 04:53:33;;;;;;;;;;;;;;;19.60;58.56;95112.00;5090850;28;20020;-65
2022/09/09 04:56:06;;;;;;;;;;;;;;;19.58;58.69;95117.75;5111624;28;20008;-64
2022/09/09 04:58:32;;;;;;;;;;;;;;;19.65;58.55;95115.16;5092959;28;20013;-64
2022/09/09 05:01:07;;;;;;;;;;;;;;;19.67;58.53;95107.50;5110602;28;20015;-65
2022/09/09 05:03:32;;;;;;;;;;;;;;;19.72;58.63;95112.59;5112109;28;20099;-65
2022/09/09 05:06:05;;;;;;;;;;;;;;;19.69;58.42;95102.50;5092396;28;20160;-65
2022/09/09 05:08:30;;;;;;;;;;;;;;;19.76;58.21;95111.84;5112560;28;20031;-62
2022/09/09 05:10:55;;;;;;;;;;;;;;;19.74;58.12;95117.63;5109297;28;20497;-63
2022/09/09 05:13:22;;;;;;;;;;;;;;;19.70;58.07;95112.16;5109651;28;20009;-63
2022/09/09 05:15:54;;;;;;;;;;;;;;;19.65;58.24;95117.88;5111088;28;20035;-63
2022/09/09 05:18:19;;;;;;;;;;;;;;;19.62;58.37;95117.84;5112224;28;20012;-62
2022/09/09 05:20:44;;;;;;;;;;;;;;;19.63;58.32;95125.56;5110139;28;20012;-64
2022/09/09 05:23:13;;;;;;;;;;;;;;;19.68;58.57;95122.56;5093405;28;20058;-64
2022/09/09 05:25:38;;;;;;;;;;;;;;;19.76;57.90;95120.75;5111093;28;20473;-66
2022/09/09 05:28:04;;;;;;;;;;;;;;;19.81;57.80;95123.16;5110251;28;20008;-65
2022/09/09 05:30:29;;;;;;;;;;;;;;;19.90;57.70;95128.25;5092762;28;20365;-64
2022/09/09 05:32:57;;;;;;;;;;;;;;;20.05;57.49;95131.94;5092993;28;20391;-64
2022/09/09 05:35:22;;;;;;;;;;;;;;;20.17;57.26;95135.22;5105478;28;20016;-63
2022/09/09 05:37:48;;;;;;;;;;;;;;;20.32;56.80;95130.81;5110019;28;20008;-63
2022/09/09 05:40:13;;;;;;;;;;;;;;;20.49;56.29;95138.38;5103965;28;20016;-63
2022/09/09 05:42:39;;;;;;;;;;;;;;;20.63;55.86;95135.06;5090521;28;20063;-64
2022/09/09 05:45:05;;;;;;;;;;;;;;;20.74;55.72;95132.50;5092129;28;20012;-63
2022/09/09 05:47:30;;;;;;;;;;;;;;;20.84;55.21;95128.34;5105909;28;20013;-64
2022/09/09 05:49:55;;;;;;;;;;;;;;;20.91;55.13;95131.13;5093218;28;20023;-65
2022/09/09 05:52:20;;;;;;;;;;;;;;;20.99;54.84;95136.25;5110869;28;20008;-65
2022/09/09 05:54:45;;;;;;;;;;;;;;;21.08;54.66;95130.53;5111030;28;20469;-61
2022/09/09 05:57:11;;;;;;;;;;;;;;;21.21;54.35;95142.66;5109282;28;20009;-64
2022/09/09 05:59:36;;;;;;;;;;;;;;;21.34;54.13;95147.81;5092888;28;20380;-63
2022/09/09 06:02:01;;;;;;;;;;;;;;;21.45;53.91;95149.47;5091899;28;20103;-63
2022/09/09 06:04:26;;;;;;;;;;;;;;;21.56;53.47;95151.50;5110567;28;20020;-63
2022/09/09 06:06:52;;;;;;;;;;;;;;;21.70;53.18;95151.59;5110055;28;20008;-63
2022/09/09 06:09:17;;;;;;;;;;;;;;;21.72;53.08;95155.50;5111104;28;20468;-72
2022/09/09 06:11:42;;;;;;;;;;;;;;;21.48;53.14;95151.41;5091947;28;20009;-75
2022/09/09 06:14:08;;;;;;;;;;;;;;;21.84;52.75;95150.94;5091746;28;20633;-72
2022/09/09 06:16:33;;;;;;;;;;;;;;;21.97;52.76;95144.06;5110776;28;20031;-71
2022/09/09 06:18:58;;;;;;;;;;;;;;;22.06;52.32;95139.13;5090371;28;20065;-69
2022/09/09 06:21:25;;;;;;;;;;;;;;;22.15;51.78;95144.97;5109081;28;20030;-73
2022/09/09 06:23:53;;;;;;;;;;;;;;;22.20;51.84;95141.91;5109593;28;20017;-74
2022/09/09 06:26:20;;;;;;;;;;;;;;;22.26;51.54;95145.81;5110106;28;20433;-72
2022/09/09 06:28:49;;;;;;;;;;;;;;;22.28;51.28;95137.34;5108277;28;20065;-71
2022/09/09 06:31:17;;;;;;;;;;;;;;;22.29;51.17;95133.47;5109065;28;20013;-64
2022/09/09 06:33:43;;;;;;;;;;;;;;;22.34;51.15;95132.31;5109328;28;20012;-64
2022/09/09 06:36:28;;;;;;;;;;;;;;;22.27;50.89;95141.19;5090133;28;20432;-66
2022/09/09 06:38:53;;;;;;;;;;;;;;;22.37;50.84;95142.38;5105621;28;20053;-64
2022/09/09 06:41:20;;;;;;;;;;;;;;;22.17;51.03;95148.09;5108473;28;20013;-63
2022/09/09 06:43:45;;;;;;;;;;;;;;;22.37;51.06;95145.91;5090333;28;20109;-65
2022/09/09 06:46:12;;;;;;;;;;;;;;;22.48;50.68;95137.81;5089291;28;20095;-64
2022/09/09 06:48:41;;;;;;;;;;;;;;;22.45;51.01;95152.91;5091901;28;20008;-65
2022/09/09 06:51:11;;;;;;;;;;;;;;;22.60;50.56;95150.25;5108890;28;20020;-64
2022/09/09 06:53:37;;;;;;;;;;;;;;;22.73;50.26;95157.69;5103406;28;20017;-64
2022/09/09 06:56:16;;;;;;;;;;;;;;;22.76;49.76;95151.47;5109815;28;20103;-65
2022/09/09 06:58:43;;;;;;;;;;;;;;;22.70;49.83;95163.88;5108045;28;20012;-64
2022/09/09 07:01:09;;;;;;;;;;;;;;;22.74;49.89;95163.88;5090665;28;20066;-64
2022/09/09 07:03:35;;;;;;;;;;;;;;;22.84;50.17;95171.28;5108603;28;20013;-66
2022/09/09 07:06:00;;;;;;;;;;;;;;;22.84;49.72;95168.56;5108080;28;20027;-65
2022/09/09 07:08:26;;;;;;;;;;;;;;;22.40;50.14;95172.22;5109649;28;20376;-65
2022/09/09 07:10:53;;;;;;;;;;;;;;;22.39;50.66;95183.47;5108706;28;20020;-66
2022/09/09 07:13:20;;;;;;;;;;;;;;;21.79;52.14;95196.16;5094084;28;20010;-65
2022/09/09 07:15:46;;;;;;;;;;;;;;;19.11;60.65;95218.66;5108361;28;20073;-65
2022/09/09 07:18:11;;;;;;;;;;;;;;;20.53;57.49;95195.16;5109831;28;20480;-65
2022/09/09 07:20:36;;;;;;;;;;;;;;;21.28;54.70;95212.25;5107777;28;20530;-65
2022/09/09 07:23:02;;;;;;;;;;;;;;;21.39;54.42;95209.69;5091150;28;20093;-66
2022/09/09 07:25:28;;;;;;;;;;;;;;;21.44;54.45;95214.78;5107913;28;20016;-67
2022/09/09 07:27:54;;;;;;;;;;;;;;;21.97;53.00;95214.50;5109261;28;20074;-67
2022/09/09 07:30:19;;;;;;;;;;;;;;;22.33;52.31;95206.66;5108076;28;20012;-67
2022/09/09 07:32:45;;;;;;;;;;;;;;;22.72;52.04;95207.63;5094926;28;20009;-66
2022/09/09 07:35:10;;;;;;;;;;;;;;;23.20;50.78;95210.19;5114159;28;20005;-66
2022/09/09 07:37:38;;;;;;;;;;;;;;;23.68;49.46;95212.63;5095654;28;20009;-67
2022/09/09 07:40:04;;;;;;;;;;;;;;;24.01;48.08;95206.06;5105566;28;20508;-67
2022/09/09 07:42:29;;;;;;;;;;;;;;;24.40;47.47;95207.22;5113639;28;20617;-67
2022/09/09 07:44:55;;;;;;;;;;;;;;;24.56;47.31;95208.34;5111420;28;20017;-65
2022/09/09 07:47:20;;;;;;;;;;;;;;;24.69;46.56;95221.53;5095541;28;20073;-65
2022/09/09 07:49:46;;;;;;;;;;;;;;;24.80;46.29;95214.91;5095421;28;20414;-66
2022/09/09 07:52:11;;;;;;;;;;;;;;;24.87;46.14;95220.31;5112395;28;20023;-65
2022/09/09 07:54:37;;;;;;;;;;;;;;;24.97;45.93;95220.66;5113647;28;20088;-65
2022/09/09 07:57:03;;;;;;;;;;;;;;;24.71;45.92;95181.13;5113884;28;20465;-66
2022/09/09 07:59:29;;;;;;;;;;;;;;;25.19;45.62;95222.19;5094489;28;20034;-65
2022/09/09 08:01:54;;;;;;;;;;;;;;;25.35;44.97;95222.47;5113620;28;20012;-67
2022/09/09 08:04:20;;;;;;;;;;;;;;;25.61;44.92;95223.88;5128620;27;20016;-67
2022/09/09 08:06:47;;;;;;;;;;;;;;;25.77;44.12;95222.66;5095141;28;20009;-67
2022/09/09 08:09:13;;;;;;;;;;;;;;;26.02;43.66;95230.66;5112468;28;20009;-67
2022/09/09 08:11:39;;;;;;;;;;;;;;;26.12;43.43;95237.97;5113589;28;20004;-67
2022/09/09 08:14:05;;;;;;;;;;;;;;;26.19;43.18;95240.63;5092440;28;20015;-67
2022/09/09 08:16:32;;;;;;;;;;;;;;;26.10;42.99;95241.09;5077787;28;20017;-67
2022/09/09 08:18:57;;;;;;;;;;;;;;;26.07;43.38;95249.28;5093171;28;20009;-66
2022/09/09 08:21:24;;;;;;;;;;;;;;;25.96;43.00;95248.59;5093111;28;20467;-67
2022/09/09 08:23:51;;;;;;;;;;;;;;;25.90;42.39;95249.03;5073982;28;20017;-67
2022/09/09 08:26:28;;;;;;;;;;;;;;;25.46;43.47;95248.88;5087953;28;20013;-66
2022/09/09 08:28:54;;;;;;;;;;;;;;;25.64;43.64;95255.78;5093681;28;20203;-67
2022/09/09 08:31:23;;;;;;;;;;;;;;;25.74;43.52;95254.16;5113047;28;20371;-66
2022/09/09 08:33:48;;;;;;;;;;;;;;;24.98;44.18;95252.94;5111808;28;20038;-66
2022/09/09 08:36:15;;;;;;;;;;;;;;;23.35;48.58;95263.34;5094729;28;20143;-67
2022/09/09 08:38:41;;;;;;;;;;;;;;;22.91;49.50;95265.50;5094009;28;20111;-66
2022/09/09 08:41:09;;;;;;;;;;;;;;;22.80;50.37;95265.41;5112942;28;20488;-67
2022/09/09 08:43:34;;;;;;;;;;;;;;;22.74;50.78;95266.94;5093692;28;20113;-66
2022/09/09 08:45:59;;;;;;;;;;;;;;;21.41;54.70;95267.72;5090955;28;20047;-67
2022/09/09 08:48:43;;;;;;;;;;;;;;;21.92;53.54;95275.19;5113035;28;20622;-66
2022/09/09 08:51:09;;;;;;;;;;;;;;;21.69;53.99;95277.28;5092557;28;20009;-66
2022/09/09 08:53:40;;;;;;;;;;;;;;;21.80;53.15;95273.53;5090675;28;20099;-66
2022/09/09 08:56:10;;;;;;;;;;;;;;;21.37;54.55;95268.81;5086677;28;20030;-66
2022/09/09 08:58:46;;;;;;;;;;;;;;;21.73;53.88;95276.16;5094641;28;20024;-66
2022/09/09 09:01:19;;;;;;;;;;;;;;;22.06;53.22;95263.72;5110765;28;20015;-66
2022/09/09 09:03:48;;;;;;;;;;;;;;;22.80;51.06;95263.47;5092875;28;20021;-66
2022/09/09 09:06:26;;;;;;;;;;;;;;;22.70;50.66;95261.47;5092451;28;20496;-66
2022/09/09 09:09:13;;;;;;;;;;;;;;;23.22;49.04;95256.72;5093772;28;20051;-67
2022/09/09 09:11:40;;;;;;;;;;;;;;;23.41;47.81;95258.34;5098536;28;20008;-67
2022/09/09 09:14:05;;;;;;;;;;;;;;;23.49;47.33;95259.91;5092898;28;20088;-66
2022/09/09 09:16:49;;;;;;;;;;;;;;;23.76;46.88;95260.38;5092603;28;20487;-66
2022/09/09 09:19:16;;;;;;;;;;;;;;;24.25;47.05;95258.06;5111951;28;20005;-67
2022/09/09 09:21:43;;;;;;;;;;;;;;;24.60;47.01;95243.69;5112715;28;20008;-66
2022/09/09 09:24:19;;;;;;;;;;;;;;;25.09;46.42;95251.00;5093540;28;20594;-67
2022/09/09 09:26:45;;;;;;;;;;;;;;;25.67;45.77;95251.47;5093337;28;20053;-66
2022/09/09 09:29:12;;;;;;;;;;;;;;;26.25;43.88;95262.78;5111490;28;20064;-67
2022/09/09 09:31:37;;;;;;;;;;;;;;;26.67;43.00;95264.41;5093578;28;20012;-66
2022/09/09 09:34:02;;;;;;;;;;;;;;;26.98;42.63;95262.50;5127671;27;20052;-67
2022/09/09 09:36:35;;;;;;;;;;;;;;;27.17;42.27;95261.13;5127860;27;20051;-67
2022/09/09 09:39:01;;;;;;;;;;;;;;;27.30;41.89;95259.44;5089567;28;20052;-67
2022/09/09 09:41:35;;;;;;;;;;;;;;;27.35;40.93;95267.19;5073601;28;20456;-66
2022/09/09 09:44:01;;;;;;;;;;;;;;;27.41;41.10;95270.22;5102556;28;20020;-67
2022/09/09 09:46:26;;;;;;;;;;;;;;;27.34;41.07;95265.63;5092615;28;20129;-67
2022/09/09 09:48:58;;;;;;;;;;;;;;;27.24;40.67;95263.81;5110962;28;20083;-66
2022/09/09 09:51:25;;;;;;;;;;;;;;;27.02;41.00;95267.91;5093668;28;20009;-66
2022/09/09 09:53:52;;;;;;;;;;;;;;;26.81;41.90;95269.69;5110733;28;20009;-66
2022/09/09 09:56:25;;;;;;;;;;;;;;;26.58;42.54;95277.72;5111771;28;20480;-67
2022/09/09 09:58:53;;;;;;;;;;;;;;;26.33;43.35;95269.72;5090033;28;20024;-66
2022/09/09 10:01:27;;;;;;;;;;;;;;;26.09;43.90;95268.75;5111536;28;20024;-66
2022/09/09 10:04:00;;;;;;;;;;;;;;;25.85;44.30;95262.31;5092860;28;20016;-67
2022/09/09 10:06:29;;;;;;;;;;;;;;;25.71;44.92;95263.13;5093446;28;20044;-66
2022/09/09 10:08:54;;;;;;;;;;;;;;;25.53;45.28;95265.16;5092553;28;20004;-66
2022/09/09 10:11:20;;;;;;;;;;;;;;;25.42;45.41;95263.28;5093300;28;20380;-66
2022/09/09 10:14:05;;;;;;;;;;;;;;;25.38;45.92;95262.50;5109041;28;20009;-66
2022/09/09 10:16:50;;;;;;;;;;;;;;;25.46;45.93;95257.81;5073451;28;20008;-66
2022/09/09 10:19:20;;;;;;;;;;;;;;;25.60;45.98;95260.47;5091241;28;20051;-66
2022/09/09 10:22:12;;;;;;;;;;;;;;;25.79;45.73;95263.88;5081275;28;20013;-66
2022/09/09 10:24:37;;;;;;;;;;;;;;;25.97;44.67;95272.72;5088894;28;20532;-66
2022/09/09 10:27:16;;;;;;;;;;;;;;;26.13;44.77;95272.22;5093396;28;20104;-66
2022/09/09 10:29:47;;;;;;;;;;;;;;;26.29;43.62;95267.03;5091487;28;20064;-66
2022/09/09 10:32:16;;;;;;;;;;;;;;;26.55;43.40;95267.63;5092324;28;20478;-65
2022/09/09 10:35:00;;;;;;;;;;;;;;;26.78;43.00;95267.00;5092801;28;20013;-65
2022/09/09 10:37:28;;;;;;;;;;;;;;;27.18;42.29;95265.44;5092819;28;20036;-65
2022/09/09 10:40:20;;;;;;;;;;;;;;;27.51;41.33;95257.59;5088676;28;20100;-66
2022/09/09 10:42:46;;;;;;;;;;;;;;;27.75;40.83;95256.53;5082489;28;20035;-66
2022/09/09 10:45:34;;;;;;;;;;;;;;;28.00;40.16;95261.63;5088480;28;20012;-68
2022/09/09 10:48:02;;;;;;;;;;;;;;;28.39;39.57;95263.00;5110708;28;20095;-68
2022/09/09 10:50:31;;;;;;;;;;;;;;;28.55;38.76;95259.59;5092496;28;20456;-66
2022/09/09 10:52:56;;;;;;;;;;;;;;;28.62;38.52;95260.25;5109289;28;20012;-66
2022/09/09 10:55:27;;;;;;;;;;;;;;;28.90;37.92;95258.97;5092693;28;20058;-66
2022/09/09 10:57:54;;;;;;;;;;;;;;;29.14;36.89;95259.72;5087941;28;20013;-67
2022/09/09 11:00:20;;;;;;;;;;;;;;;29.35;36.46;95255.00;5108969;28;20055;-66
2022/09/09 11:02:56;;;;;;;;;;;;;;;29.58;36.15;95248.66;5090681;28;20012;-67
2022/09/09 11:05:27;;;;;;;;;;;;;;;29.73;35.90;95252.63;5092274;28;20441;-66
2022/09/09 11:07:56;;;;;;;;;;;;;;;29.94;35.43;95249.44;5092379;28;20061;-66
2022/09/09 11:10:28;;;;;;;;;;;;;;;30.05;34.71;95257.41;5110613;28;20053;-67
2022/09/09 11:12:58;;;;;;;;;;;;;;;29.98;34.65;95252.84;5107103;28;20020;-67
2022/09/09 11:15:43;;;;;;;;;;;;;;;29.61;34.19;95256.03;5090527;28;20016;-66
2022/09/09 11:18:13;;;;;;;;;;;;;;;29.56;34.74;95259.28;5109572;28;20016;-66
2022/09/09 11:20:38;;;;;;;;;;;;;;;29.49;35.01;95252.75;5110530;28;20099;-67
2022/09/09 11:23:09;;;;;;;;;;;;;;;29.61;34.45;95259.56;5108769;28;20590;-67
2022/09/09 11:25:43;;;;;;;;;;;;;;;29.59;34.31;95256.47;5107845;28;20012;-66
2022/09/09 11:28:27;;;;;;;;;;;;;;;29.76;34.61;95252.56;5110279;28;20400;-67
2022/09/09 11:30:52;;;;;;;;;;;;;;;29.74;34.17;95251.47;5106786;28;20381;-67
2022/09/09 11:33:37;;;;;;;;;;;;;;;30.01;33.84;95259.47;5105101;28;20009;-67
2022/09/09 11:36:24;;;;;;;;;;;;;;;30.22;33.77;95248.00;5091179;28;20016;-67
2022/09/09 11:38:51;;;;;;;;;;;;;;;30.06;33.69;95260.94;5110233;28;20008;-67
2022/09/09 11:41:17;;;;;;;;;;;;;;;29.70;33.57;95256.25;5092050;28;20098;-66
2022/09/09 11:43:45;;;;;;;;;;;;;;;29.68;34.21;95250.41;5090765;28;20016;-66
2022/09/09 11:46:12;;;;;;;;;;;;;;;29.77;34.30;95256.84;5106717;28;20413;-67
2022/09/09 11:48:57;;;;;;;;;;;;;;;29.77;34.19;95256.06;5104168;28;20133;-66
2022/09/09 11:51:22;;;;;;;;;;;;;;;29.00;34.69;95255.28;5089527;28;20013;-66
2022/09/09 11:53:49;;;;;;;;;;;;;;;29.06;35.31;95246.56;5106945;28;20055;-66
2022/09/09 11:56:23;;;;;;;;;;;;;;;29.41;35.57;95248.59;5108328;28;20013;-66
2022/09/09 11:59:15;;;;;;;;;;;;;;;29.55;35.46;95255.78;5088511;28;20107;-66
2022/09/09 12:01:42;;;;;;;;;;;;;;;29.19;35.52;95256.47;5083977;28;20500;-66
2022/09/09 12:04:17;;;;;;;;;;;;;;;29.32;35.60;95253.09;5089199;28;20016;-67
2022/09/09 12:06:42;;;;;;;;;;;;;;;29.35;35.67;95247.56;5088276;28;20479;-66
2022/09/09 12:09:28;;;;;;;;;;;;;;;29.57;35.37;95247.91;5107174;28;20023;-67
2022/09/09 12:12:04;;;;;;;;;;;;;;;30.06;34.16;95247.97;5109364;28;20008;-67
2022/09/09 12:14:37;;;;;;;;;;;;;;;30.38;34.15;95241.75;5107696;28;20019;-67
2022/09/09 12:17:21;;;;;;;;;;;;;;;30.45;33.43;95238.81;5093086;28;20108;-68
2022/09/09 12:19:47;;;;;;;;;;;;;;;30.70;32.71;95245.66;5109622;28;20015;-66
2022/09/09 12:22:15;;;;;;;;;;;;;;;30.64;32.21;95247.38;5094182;28;20008;-66
2022/09/09 12:24:41;;;;;;;;;;;;;;;30.54;32.70;95244.47;5095218;28;20046;-67
2022/09/09 12:27:24;;;;;;;;;;;;;;;30.71;32.31;95236.22;5113214;28;20004;-67
2022/09/09 12:29:53;;;;;;;;;;;;;;;31.00;32.49;95241.72;5112919;28;20009;-67
2022/09/09 12:32:25;;;;;;;;;;;;;;;31.18;32.07;95225.53;5094608;28;20057;-67
2022/09/09 12:34:54;;;;;;;;;;;;;;;31.08;32.33;95229.34;5113553;28;20059;-67
2022/09/09 12:37:20;;;;;;;;;;;;;;;30.97;31.59;95228.88;5095149;27;20024;-67
2022/09/09 12:39:47;;;;;;;;;;;;;;;30.63;32.67;95227.38;5111429;28;20009;-67
2022/09/09 12:42:16;;;;;;;;;;;;;;;30.69;33.23;95228.41;5094398;28;20128;-67
2022/09/09 12:44:50;;;;;;;;;;;;;;;30.57;32.97;95234.59;5111225;28;20017;-66
2022/09/09 12:47:15;;;;;;;;;;;;;;;30.35;33.65;95230.84;5092631;28;20020;-66
2022/09/09 12:49:41;;;;;;;;;;;;;;;30.45;34.05;95225.09;5093549;28;20009;-67
2022/09/09 12:52:23;;;;;;;;;;;;;;;30.49;33.58;95225.78;5091902;28;20012;-67
2022/09/09 12:54:51;;;;;;;;;;;;;;;30.80;32.32;95226.16;5074272;28;20055;-66
2022/09/09 12:57:16;;;;;;;;;;;;;;;30.14;32.18;95218.41;5092660;28;20050;-67